sensor_id;sensor_type;location;lat;lon;timestamp;temperature;humidity
76857;DHT22;66179;44.686;37.628;2023-04-19T00:00:13;16.95;70.84
76857;DHT22;66179;44.686;37.628;2023-04-19T00:02:40;16.95;70.85
76857;DHT22;66179;44.686;37.628;2023-04-19T00:05:08;16.95;70.16
76857;DHT22;66179;44.686;37.628;2023-04-19T00:07:35;17.01;70.11
76857;DHT22;66179;44.686;37.628;2023-04-19T00:10:02;17.03;69.61
76857;DHT22;66179;44.686;37.628;2023-04-19T00:12:29;17.03;70.19
76857;DHT22;66179;44.686;37.628;2023-04-19T00:14:56;17.05;71.03
76857;DHT22;66179;44.686;37.628;2023-04-19T00:17:22;17.07;70.16
76857;DHT22;66179;44.686;37.628;2023-04-19T00:19:49;17.16;68.89
76857;DHT22;66179;44.686;37.628;2023-04-19T00:22:16;17.18;69.51
76857;DHT22;66179;44.686;37.628;2023-04-19T00:24:43;17.30;68.13
76857;DHT22;66179;44.686;37.628;2023-04-19T00:27:10;17.33;68.38
76857;DHT22;66179;44.686;37.628;2023-04-19T00:29:36;17.41;67.99
76857;DHT22;66179;44.686;37.628;2023-04-19T00:32:05;17.49;67.56
76857;DHT22;66179;44.686;37.628;2023-04-19T00:34:31;17.51;66.99
76857;DHT22;66179;44.686;37.628;2023-04-19T00:36:58;17.60;66.25
76857;DHT22;66179;44.686;37.628;2023-04-19T00:39:25;17.67;66.09
76857;DHT22;66179;44.686;37.628;2023-04-19T00:41:52;17.68;66.39
76857;DHT22;66179;44.686;37.628;2023-04-19T00:44:19;17.66;67.10
76857;DHT22;66179;44.686;37.628;2023-04-19T00:46:47;17.62;67.23
76857;DHT22;66179;44.686;37.628;2023-04-19T00:49:17;17.58;67.30
76857;DHT22;66179;44.686;37.628;2023-04-19T00:51:46;17.55;67.71
76857;DHT22;66179;44.686;37.628;2023-04-19T00:54:13;17.55;68.77
76857;DHT22;66179;44.686;37.628;2023-04-19T00:56:41;17.44;68.88
76857;DHT22;66179;44.686;37.628;2023-04-19T00:59:07;17.35;68.99
76857;DHT22;66179;44.686;37.628;2023-04-19T01:01:37;17.36;69.91
76857;DHT22;66179;44.686;37.628;2023-04-19T01:04:04;17.35;69.59
76857;DHT22;66179;44.686;37.628;2023-04-19T01:06:33;17.29;70.11
76857;DHT22;66179;44.686;37.628;2023-04-19T01:09:00;17.22;70.50
76857;DHT22;66179;44.686;37.628;2023-04-19T01:11:27;17.21;70.32
76857;DHT22;66179;44.686;37.628;2023-04-19T01:13:54;17.19;70.43
76857;DHT22;66179;44.686;37.628;2023-04-19T01:16:22;17.22;70.23
76857;DHT22;66179;44.686;37.628;2023-04-19T01:18:50;17.20;71.63
76857;DHT22;66179;44.686;37.628;2023-04-19T01:21:17;17.14;71.48
76857;DHT22;66179;44.686;37.628;2023-04-19T01:23:44;17.09;72.52
76857;DHT22;66179;44.686;37.628;2023-04-19T01:26:11;17.07;70.86
76857;DHT22;66179;44.686;37.628;2023-04-19T01:28:38;17.09;70.04
76857;DHT22;66179;44.686;37.628;2023-04-19T01:31:04;17.09;70.84
76857;DHT22;66179;44.686;37.628;2023-04-19T01:33:32;17.13;72.46
76857;DHT22;66179;44.686;37.628;2023-04-19T01:35:59;17.14;70.02
76857;DHT22;66179;44.686;37.628;2023-04-19T01:38:26;17.18;70.25
76857;DHT22;66179;44.686;37.628;2023-04-19T01:40:53;17.25;70.02
76857;DHT22;66179;44.686;37.628;2023-04-19T01:43:24;17.22;70.17
76857;DHT22;66179;44.686;37.628;2023-04-19T01:45:51;17.25;68.87
76857;DHT22;66179;44.686;37.628;2023-04-19T01:48:20;17.34;68.23
76857;DHT22;66179;44.686;37.628;2023-04-19T01:50:46;17.40;67.99
76857;DHT22;66179;44.686;37.628;2023-04-19T01:53:13;17.43;68.42
76857;DHT22;66179;44.686;37.628;2023-04-19T01:55:40;17.48;67.93
76857;DHT22;66179;44.686;37.628;2023-04-19T01:58:07;17.48;68.94
76857;DHT22;66179;44.686;37.628;2023-04-19T02:00:33;17.47;69.28
76857;DHT22;66179;44.686;37.628;2023-04-19T02:03:04;17.40;73.53
76857;DHT22;66179;44.686;37.628;2023-04-19T02:05:31;17.21;77.46
76857;DHT22;66179;44.686;37.628;2023-04-19T02:08:00;16.91;78.36
76857;DHT22;66179;44.686;37.628;2023-04-19T02:10:30;16.75;80.93
76857;DHT22;66179;44.686;37.628;2023-04-19T02:12:56;16.67;82.54
76857;DHT22;66179;44.686;37.628;2023-04-19T02:15:23;16.61;84.34
76857;DHT22;66179;44.686;37.628;2023-04-19T02:17:50;16.43;85.83
76857;DHT22;66179;44.686;37.628;2023-04-19T02:20:18;16.28;85.77
76857;DHT22;66179;44.686;37.628;2023-04-19T02:22:45;16.22;85.44
76857;DHT22;66179;44.686;37.628;2023-04-19T02:25:13;16.15;83.38
76857;DHT22;66179;44.686;37.628;2023-04-19T02:27:41;16.18;85.94
76857;DHT22;66179;44.686;37.628;2023-04-19T02:30:08;16.24;84.52
76857;DHT22;66179;44.686;37.628;2023-04-19T02:32:35;16.17;84.47
76857;DHT22;66179;44.686;37.628;2023-04-19T02:35:01;16.20;84.39
76857;DHT22;66179;44.686;37.628;2023-04-19T02:37:29;16.13;85.77
76857;DHT22;66179;44.686;37.628;2023-04-19T02:39:56;16.07;84.64
76857;DHT22;66179;44.686;37.628;2023-04-19T02:42:23;16.02;83.50
76857;DHT22;66179;44.686;37.628;2023-04-19T02:44:54;16.02;82.31
76857;DHT22;66179;44.686;37.628;2023-04-19T02:47:24;15.99;83.61
76857;DHT22;66179;44.686;37.628;2023-04-19T02:49:51;16.00;85.47
76857;DHT22;66179;44.686;37.628;2023-04-19T02:52:18;15.85;86.80
76857;DHT22;66179;44.686;37.628;2023-04-19T02:54:45;15.84;86.89
76857;DHT22;66179;44.686;37.628;2023-04-19T02:57:12;15.76;85.84
76857;DHT22;66179;44.686;37.628;2023-04-19T02:59:41;15.81;81.74
76857;DHT22;66179;44.686;37.628;2023-04-19T03:02:08;15.88;80.01
76857;DHT22;66179;44.686;37.628;2023-04-19T03:04:35;15.91;81.31
76857;DHT22;66179;44.686;37.628;2023-04-19T03:07:02;15.81;83.84
76857;DHT22;66179;44.686;37.628;2023-04-19T03:09:29;15.65;84.87
76857;DHT22;66179;44.686;37.628;2023-04-19T03:11:57;15.53;84.36
76857;DHT22;66179;44.686;37.628;2023-04-19T03:14:24;15.46;84.23
76857;DHT22;66179;44.686;37.628;2023-04-19T03:16:51;15.46;84.58
76857;DHT22;66179;44.686;37.628;2023-04-19T03:19:18;15.37;82.81
76857;DHT22;66179;44.686;37.628;2023-04-19T03:21:49;15.27;84.77
76857;DHT22;66179;44.686;37.628;2023-04-19T03:24:18;15.25;85.27
76857;DHT22;66179;44.686;37.628;2023-04-19T03:26:49;15.18;85.44
76857;DHT22;66179;44.686;37.628;2023-04-19T03:29:21;15.13;85.16
76857;DHT22;66179;44.686;37.628;2023-04-19T03:31:59;15.14;84.72
76857;DHT22;66179;44.686;37.628;2023-04-19T03:34:28;15.17;84.57
76857;DHT22;66179;44.686;37.628;2023-04-19T03:36:55;15.16;84.87
76857;DHT22;66179;44.686;37.628;2023-04-19T03:39:22;15.11;85.16
76857;DHT22;66179;44.686;37.628;2023-04-19T03:41:52;15.22;85.33
76857;DHT22;66179;44.686;37.628;2023-04-19T03:44:26;15.27;85.69
76857;DHT22;66179;44.686;37.628;2023-04-19T03:46:53;15.25;85.66
76857;DHT22;66179;44.686;37.628;2023-04-19T03:49:25;15.34;84.17
76857;DHT22;66179;44.686;37.628;2023-04-19T03:52:02;15.41;83.24
76857;DHT22;66179;44.686;37.628;2023-04-19T03:54:29;15.47;82.72
76857;DHT22;66179;44.686;37.628;2023-04-19T03:56:56;15.54;82.42
76857;DHT22;66179;44.686;37.628;2023-04-19T03:59:25;15.55;81.46
76857;DHT22;66179;44.686;37.628;2023-04-19T04:01:52;15.59;81.83
76857;DHT22;66179;44.686;37.628;2023-04-19T04:04:19;15.61;81.81
76857;DHT22;66179;44.686;37.628;2023-04-19T04:06:46;15.62;81.76
76857;DHT22;66179;44.686;37.628;2023-04-19T04:09:15;15.63;82.31
76857;DHT22;66179;44.686;37.628;2023-04-19T04:11:43;15.59;82.67
76857;DHT22;66179;44.686;37.628;2023-04-19T04:14:10;15.63;82.10
76857;DHT22;66179;44.686;37.628;2023-04-19T04:16:38;15.69;82.67
76857;DHT22;66179;44.686;37.628;2023-04-19T04:19:05;15.75;81.26
76857;DHT22;66179;44.686;37.628;2023-04-19T04:21:36;15.78;81.02
76857;DHT22;66179;44.686;37.628;2023-04-19T04:24:04;15.82;81.94
76857;DHT22;66179;44.686;37.628;2023-04-19T04:26:59;15.95;80.76
76857;DHT22;66179;44.686;37.628;2023-04-19T04:29:32;16.02;80.71
76857;DHT22;66179;44.686;37.628;2023-04-19T04:32:00;16.08;82.99
76857;DHT22;66179;44.686;37.628;2023-04-19T04:34:35;16.10;83.68
76857;DHT22;66179;44.686;37.628;2023-04-19T04:37:07;16.06;81.77
76857;DHT22;66179;44.686;37.628;2023-04-19T04:39:35;16.08;81.97
76857;DHT22;66179;44.686;37.628;2023-04-19T04:42:05;16.08;81.10
76857;DHT22;66179;44.686;37.628;2023-04-19T04:44:34;16.12;79.92
76857;DHT22;66179;44.686;37.628;2023-04-19T04:47:02;16.07;82.83
76857;DHT22;66179;44.686;37.628;2023-04-19T04:49:33;15.97;81.91
76857;DHT22;66179;44.686;37.628;2023-04-19T04:52:00;16.04;80.73
76857;DHT22;66179;44.686;37.628;2023-04-19T04:54:30;16.13;79.50
76857;DHT22;66179;44.686;37.628;2023-04-19T04:56:58;16.17;79.31
76857;DHT22;66179;44.686;37.628;2023-04-19T04:59:26;16.19;80.42
76857;DHT22;66179;44.686;37.628;2023-04-19T05:01:52;16.20;79.33
76857;DHT22;66179;44.686;37.628;2023-04-19T05:04:20;16.15;82.04
76857;DHT22;66179;44.686;37.628;2023-04-19T05:06:50;16.03;82.29
76857;DHT22;66179;44.686;37.628;2023-04-19T05:09:22;16.01;78.05
76857;DHT22;66179;44.686;37.628;2023-04-19T05:11:50;16.01;78.53
76857;DHT22;66179;44.686;37.628;2023-04-19T05:14:17;16.00;79.21
76857;DHT22;66179;44.686;37.628;2023-04-19T05:16:43;15.98;78.11
76857;DHT22;66179;44.686;37.628;2023-04-19T05:19:10;16.01;78.93
76857;DHT22;66179;44.686;37.628;2023-04-19T05:21:43;16.06;78.85
76857;DHT22;66179;44.686;37.628;2023-04-19T05:24:10;16.25;78.88
76857;DHT22;66179;44.686;37.628;2023-04-19T05:26:38;16.48;77.45
76857;DHT22;66179;44.686;37.628;2023-04-19T05:29:06;16.70;74.38
76857;DHT22;66179;44.686;37.628;2023-04-19T05:31:51;16.95;74.38
76857;DHT22;66179;44.686;37.628;2023-04-19T05:34:23;17.11;70.65
76857;DHT22;66179;44.686;37.628;2023-04-19T05:36:50;17.29;71.10
76857;DHT22;66179;44.686;37.628;2023-04-19T05:39:17;17.35;70.25
76857;DHT22;66179;44.686;37.628;2023-04-19T05:41:44;17.38;68.98
76857;DHT22;66179;44.686;37.628;2023-04-19T05:44:11;17.40;69.35
76857;DHT22;66179;44.686;37.628;2023-04-19T05:46:38;17.50;69.49
76857;DHT22;66179;44.686;37.628;2023-04-19T05:49:06;17.65;69.12
76857;DHT22;66179;44.686;37.628;2023-04-19T05:51:58;17.78;69.43
76857;DHT22;66179;44.686;37.628;2023-04-19T05:54:54;17.88;68.65
76857;DHT22;66179;44.686;37.628;2023-04-19T05:57:21;17.99;67.54
76857;DHT22;66179;44.686;37.628;2023-04-19T05:59:48;18.07;67.60
76857;DHT22;66179;44.686;37.628;2023-04-19T06:02:19;18.09;67.84
76857;DHT22;66179;44.686;37.628;2023-04-19T06:04:45;18.04;68.15
76857;DHT22;66179;44.686;37.628;2023-04-19T06:07:13;17.96;68.21
76857;DHT22;66179;44.686;37.628;2023-04-19T06:09:39;17.98;69.37
76857;DHT22;66179;44.686;37.628;2023-04-19T06:12:07;18.00;68.62
76857;DHT22;66179;44.686;37.628;2023-04-19T06:14:34;17.95;68.36
76857;DHT22;66179;44.686;37.628;2023-04-19T06:17:01;17.94;69.16
76857;DHT22;66179;44.686;37.628;2023-04-19T06:19:28;17.95;68.32
76857;DHT22;66179;44.686;37.628;2023-04-19T06:21:55;18.06;69.62
76857;DHT22;66179;44.686;37.628;2023-04-19T06:24:22;18.12;68.47
76857;DHT22;66179;44.686;37.628;2023-04-19T06:26:49;18.14;67.01
76857;DHT22;66179;44.686;37.628;2023-04-19T06:29:15;18.17;67.28
76857;DHT22;66179;44.686;37.628;2023-04-19T06:31:43;18.22;68.53
76857;DHT22;66179;44.686;37.628;2023-04-19T06:34:11;18.25;68.52
76857;DHT22;66179;44.686;37.628;2023-04-19T06:36:38;18.27;68.33
76857;DHT22;66179;44.686;37.628;2023-04-19T06:39:05;18.33;67.39
76857;DHT22;66179;44.686;37.628;2023-04-19T06:41:32;18.39;67.77
76857;DHT22;66179;44.686;37.628;2023-04-19T06:43:59;18.51;66.18
76857;DHT22;66179;44.686;37.628;2023-04-19T06:46:26;18.47;67.27
76857;DHT22;66179;44.686;37.628;2023-04-19T06:48:53;18.51;66.99
76857;DHT22;66179;44.686;37.628;2023-04-19T06:51:19;18.64;67.38
76857;DHT22;66179;44.686;37.628;2023-04-19T06:53:48;18.65;67.61
76857;DHT22;66179;44.686;37.628;2023-04-19T06:56:15;18.65;67.76
76857;DHT22;66179;44.686;37.628;2023-04-19T06:58:42;18.64;66.97
76857;DHT22;66179;44.686;37.628;2023-04-19T07:01:09;18.67;67.98
76857;DHT22;66179;44.686;37.628;2023-04-19T07:03:36;18.72;66.49
76857;DHT22;66179;44.686;37.628;2023-04-19T07:06:03;18.84;67.61
76857;DHT22;66179;44.686;37.628;2023-04-19T07:08:29;18.76;66.46
76857;DHT22;66179;44.686;37.628;2023-04-19T07:15:38;18.67;66.54
76857;DHT22;66179;44.686;37.628;2023-04-19T07:18:05;18.65;68.26
76857;DHT22;66179;44.686;37.628;2023-04-19T07:20:32;18.62;68.15
76857;DHT22;66179;44.686;37.628;2023-04-19T07:22:59;18.50;68.39
76857;DHT22;66179;44.686;37.628;2023-04-19T07:25:26;18.33;69.42
76857;DHT22;66179;44.686;37.628;2023-04-19T07:27:54;18.30;70.07
76857;DHT22;66179;44.686;37.628;2023-04-19T07:30:22;18.34;69.79
76857;DHT22;66179;44.686;37.628;2023-04-19T07:32:48;18.40;69.48
76857;DHT22;66179;44.686;37.628;2023-04-19T07:35:17;18.38;69.30
76857;DHT22;66179;44.686;37.628;2023-04-19T07:37:45;18.46;69.40
76857;DHT22;66179;44.686;37.628;2023-04-19T07:40:11;18.49;70.26
76857;DHT22;66179;44.686;37.628;2023-04-19T07:42:38;18.65;70.13
76857;DHT22;66179;44.686;37.628;2023-04-19T07:45:06;18.61;70.56
76857;DHT22;66179;44.686;37.628;2023-04-19T07:47:34;18.65;69.31
76857;DHT22;66179;44.686;37.628;2023-04-19T07:50:04;18.55;70.97
76857;DHT22;66179;44.686;37.628;2023-04-19T07:52:33;18.70;70.81
76857;DHT22;66179;44.686;37.628;2023-04-19T07:54:59;18.66;68.79
76857;DHT22;66179;44.686;37.628;2023-04-19T07:57:27;18.74;69.10
76857;DHT22;66179;44.686;37.628;2023-04-19T07:59:54;18.84;69.87
76857;DHT22;66179;44.686;37.628;2023-04-19T08:02:25;18.93;68.75
76857;DHT22;66179;44.686;37.628;2023-04-19T08:04:53;18.98;68.87
76857;DHT22;66179;44.686;37.628;2023-04-19T08:07:20;18.92;68.82
76857;DHT22;66179;44.686;37.628;2023-04-19T08:09:48;19.02;68.55
76857;DHT22;66179;44.686;37.628;2023-04-19T08:12:15;19.02;68.27
76857;DHT22;66179;44.686;37.628;2023-04-19T08:14:44;18.84;68.82
76857;DHT22;66179;44.686;37.628;2023-04-19T08:17:11;18.91;69.76
76857;DHT22;66179;44.686;37.628;2023-04-19T08:19:38;18.88;69.88
76857;DHT22;66179;44.686;37.628;2023-04-19T08:22:05;19.07;69.29
76857;DHT22;66179;44.686;37.628;2023-04-19T08:24:32;18.88;70.18
76857;DHT22;66179;44.686;37.628;2023-04-19T08:26:59;19.07;69.45
76857;DHT22;66179;44.686;37.628;2023-04-19T08:29:25;19.10;69.82
76857;DHT22;66179;44.686;37.628;2023-04-19T08:31:53;18.86;70.19
76857;DHT22;66179;44.686;37.628;2023-04-19T08:34:20;18.85;71.01
76857;DHT22;66179;44.686;37.628;2023-04-19T08:36:47;18.97;70.69
76857;DHT22;66179;44.686;37.628;2023-04-19T08:39:14;18.92;69.39
76857;DHT22;66179;44.686;37.628;2023-04-19T08:41:40;19.08;69.80
76857;DHT22;66179;44.686;37.628;2023-04-19T08:44:10;19.08;70.19
76857;DHT22;66179;44.686;37.628;2023-04-19T08:46:38;18.82;70.93
76857;DHT22;66179;44.686;37.628;2023-04-19T08:49:07;18.86;70.17
76857;DHT22;66179;44.686;37.628;2023-04-19T08:51:34;18.58;71.47
76857;DHT22;66179;44.686;37.628;2023-04-19T08:54:03;18.40;70.99
76857;DHT22;66179;44.686;37.628;2023-04-19T08:56:31;18.05;72.51
76857;DHT22;66179;44.686;37.628;2023-04-19T08:58:58;17.89;74.20
76857;DHT22;66179;44.686;37.628;2023-04-19T09:01:25;17.99;73.42
76857;DHT22;66179;44.686;37.628;2023-04-19T09:03:51;18.15;73.12
76857;DHT22;66179;44.686;37.628;2023-04-19T09:06:18;18.39;73.31
76857;DHT22;66179;44.686;37.628;2023-04-19T09:08:45;18.69;72.27
76857;DHT22;66179;44.686;37.628;2023-04-19T09:11:12;18.81;70.58
76857;DHT22;66179;44.686;37.628;2023-04-19T09:13:39;18.86;70.90
76857;DHT22;66179;44.686;37.628;2023-04-19T09:16:25;18.98;71.06
76857;DHT22;66179;44.686;37.628;2023-04-19T09:18:57;18.99;71.32
76857;DHT22;66179;44.686;37.628;2023-04-19T09:21:28;19.08;71.64
76857;DHT22;66179;44.686;37.628;2023-04-19T09:23:56;19.13;71.48
76857;DHT22;66179;44.686;37.628;2023-04-19T09:26:23;19.22;70.90
76857;DHT22;66179;44.686;37.628;2023-04-19T09:29:02;19.37;69.39
76857;DHT22;66179;44.686;37.628;2023-04-19T09:31:33;19.13;71.14
76857;DHT22;66179;44.686;37.628;2023-04-19T09:34:15;18.95;70.13
76857;DHT22;66179;44.686;37.628;2023-04-19T09:36:42;18.42;72.90
76857;DHT22;66179;44.686;37.628;2023-04-19T09:39:10;18.03;73.69
76857;DHT22;66179;44.686;37.628;2023-04-19T09:41:50;17.74;75.34
76857;DHT22;66179;44.686;37.628;2023-04-19T09:44:18;17.70;75.35
76857;DHT22;66179;44.686;37.628;2023-04-19T09:46:45;17.79;75.15
76857;DHT22;66179;44.686;37.628;2023-04-19T09:51:48;18.38;73.88
76857;DHT22;66179;44.686;37.628;2023-04-19T09:54:17;18.71;73.02
76857;DHT22;66179;44.686;37.628;2023-04-19T09:56:45;19.05;70.97
76857;DHT22;66179;44.686;37.628;2023-04-19T09:59:12;18.80;71.56
76857;DHT22;66179;44.686;37.628;2023-04-19T10:01:43;18.59;71.42
76857;DHT22;66179;44.686;37.628;2023-04-19T10:04:15;18.32;72.99
76857;DHT22;66179;44.686;37.628;2023-04-19T10:06:49;17.93;73.86
76857;DHT22;66179;44.686;37.628;2023-04-19T10:09:18;17.91;74.82
76857;DHT22;66179;44.686;37.628;2023-04-19T10:11:52;17.88;75.92
76857;DHT22;66179;44.686;37.628;2023-04-19T10:14:23;18.28;74.81
76857;DHT22;66179;44.686;37.628;2023-04-19T10:16:51;18.87;71.61
76857;DHT22;66179;44.686;37.628;2023-04-19T10:19:19;19.12;71.16
76857;DHT22;66179;44.686;37.628;2023-04-19T10:21:48;18.68;71.28
76857;DHT22;66179;44.686;37.628;2023-04-19T10:24:15;18.44;72.45
76857;DHT22;66179;44.686;37.628;2023-04-19T10:32:17;18.09;73.76
76857;DHT22;66179;44.686;37.628;2023-04-19T10:34:47;17.87;74.31
76857;DHT22;66179;44.686;37.628;2023-04-19T10:37:14;17.45;75.13
76857;DHT22;66179;44.686;37.628;2023-04-19T10:39:43;17.25;76.57
76857;DHT22;66179;44.686;37.628;2023-04-19T10:42:10;16.98;77.43
76857;DHT22;66179;44.686;37.628;2023-04-19T10:44:38;16.76;78.80
76857;DHT22;66179;44.686;37.628;2023-04-19T10:47:05;16.61;81.62
76857;DHT22;66179;44.686;37.628;2023-04-19T10:49:43;16.45;81.84
76857;DHT22;66179;44.686;37.628;2023-04-19T10:52:26;16.22;82.17
76857;DHT22;66179;44.686;37.628;2023-04-19T10:54:55;16.06;83.84
76857;DHT22;66179;44.686;37.628;2023-04-19T10:57:22;16.16;84.11
76857;DHT22;66179;44.686;37.628;2023-04-19T11:00:17;16.10;83.04
76857;DHT22;66179;44.686;37.628;2023-04-19T11:02:45;16.18;83.08
76857;DHT22;66179;44.686;37.628;2023-04-19T11:05:12;16.32;80.72
76857;DHT22;66179;44.686;37.628;2023-04-19T11:07:40;16.42;80.59
76857;DHT22;66179;44.686;37.628;2023-04-19T11:10:08;16.56;81.06
76857;DHT22;66179;44.686;37.628;2023-04-19T11:12:35;16.84;81.41
76857;DHT22;66179;44.686;37.628;2023-04-19T11:15:04;17.32;79.39
76857;DHT22;66179;44.686;37.628;2023-04-19T11:17:31;17.96;75.33
76857;DHT22;66179;44.686;37.628;2023-04-19T11:20:06;18.32;74.37
76857;DHT22;66179;44.686;37.628;2023-04-19T11:22:38;18.04;74.36
76857;DHT22;66179;44.686;37.628;2023-04-19T11:27:33;17.75;75.38
76857;DHT22;66179;44.686;37.628;2023-04-19T11:30:28;17.56;75.32
76857;DHT22;66179;44.686;37.628;2023-04-19T11:32:53;17.38;76.35
76857;DHT22;66179;44.686;37.628;2023-04-19T11:35:21;16.95;77.98
76857;DHT22;66179;44.686;37.628;2023-04-19T11:37:49;17.00;78.57
76857;DHT22;66179;44.686;37.628;2023-04-19T11:40:18;17.06;78.15
76857;DHT22;66179;44.686;37.628;2023-04-19T11:42:45;17.08;76.99
76857;DHT22;66179;44.686;37.628;2023-04-19T11:45:24;17.07;78.07
76857;DHT22;66179;44.686;37.628;2023-04-19T11:47:51;17.11;76.76
76857;DHT22;66179;44.686;37.628;2023-04-19T11:50:38;17.16;76.98
76857;DHT22;66179;44.686;37.628;2023-04-19T11:53:16;17.16;76.41
76857;DHT22;66179;44.686;37.628;2023-04-19T11:55:50;17.24;75.94
76857;DHT22;66179;44.686;37.628;2023-04-19T11:58:36;17.17;76.72
76857;DHT22;66179;44.686;37.628;2023-04-19T12:01:08;17.15;75.99
76857;DHT22;66179;44.686;37.628;2023-04-19T12:03:43;17.25;75.55
76857;DHT22;66179;44.686;37.628;2023-04-19T12:08:46;17.90;73.76
76857;DHT22;66179;44.686;37.628;2023-04-19T12:11:14;18.04;74.26
76857;DHT22;66179;44.686;37.628;2023-04-19T12:13:41;18.05;71.62
76857;DHT22;66179;44.686;37.628;2023-04-19T12:16:10;18.29;71.29
76857;DHT22;66179;44.686;37.628;2023-04-19T12:18:47;18.64;69.36
76857;DHT22;66179;44.686;37.628;2023-04-19T12:21:30;18.95;69.42
76857;DHT22;66179;44.686;37.628;2023-04-19T12:24:00;18.95;68.55
76857;DHT22;66179;44.686;37.628;2023-04-19T12:26:27;18.91;69.98
76857;DHT22;66179;44.686;37.628;2023-04-19T12:28:55;18.89;70.95
76857;DHT22;66179;44.686;37.628;2023-04-19T12:31:22;19.07;69.60
76857;DHT22;66179;44.686;37.628;2023-04-19T12:33:49;19.55;66.63
76857;DHT22;66179;44.686;37.628;2023-04-19T12:36:16;19.60;66.09
76857;DHT22;66179;44.686;37.628;2023-04-19T12:38:43;19.58;66.33
76857;DHT22;66179;44.686;37.628;2023-04-19T12:41:10;19.55;66.26
76857;DHT22;66179;44.686;37.628;2023-04-19T12:43:37;19.46;66.26
76857;DHT22;66179;44.686;37.628;2023-04-19T12:46:03;19.40;64.95
76857;DHT22;66179;44.686;37.628;2023-04-19T12:48:30;19.48;65.08
76857;DHT22;66179;44.686;37.628;2023-04-19T12:50:57;19.43;65.54
76857;DHT22;66179;44.686;37.628;2023-04-19T12:53:24;19.45;64.27
76857;DHT22;66179;44.686;37.628;2023-04-19T12:55:51;19.37;65.46
76857;DHT22;66179;44.686;37.628;2023-04-19T12:58:18;19.27;67.36
76857;DHT22;66179;44.686;37.628;2023-04-19T13:00:47;19.09;68.38
76857;DHT22;66179;44.686;37.628;2023-04-19T13:03:14;19.09;69.26
76857;DHT22;66179;44.686;37.628;2023-04-19T13:05:41;18.98;69.69
76857;DHT22;66179;44.686;37.628;2023-04-19T13:08:08;19.10;68.33
76857;DHT22;66179;44.686;37.628;2023-04-19T13:10:35;19.25;67.82
76857;DHT22;66179;44.686;37.628;2023-04-19T13:13:02;19.56;67.17
76857;DHT22;66179;44.686;37.628;2023-04-19T13:15:28;19.77;66.32
76857;DHT22;66179;44.686;37.628;2023-04-19T13:17:55;20.05;65.37
76857;DHT22;66179;44.686;37.628;2023-04-19T13:20:22;20.27;63.73
76857;DHT22;66179;44.686;37.628;2023-04-19T13:22:49;20.50;64.30
76857;DHT22;66179;44.686;37.628;2023-04-19T13:25:16;20.83;63.09
76857;DHT22;66179;44.686;37.628;2023-04-19T13:27:42;21.10;61.51
76857;DHT22;66179;44.686;37.628;2023-04-19T13:30:09;21.47;61.86
76857;DHT22;66179;44.686;37.628;2023-04-19T13:32:37;21.72;59.06
76857;DHT22;66179;44.686;37.628;2023-04-19T13:35:04;21.97;57.45
76857;DHT22;66179;44.686;37.628;2023-04-19T13:37:31;22.07;58.02
76857;DHT22;66179;44.686;37.628;2023-04-19T13:39:57;21.88;59.58
76857;DHT22;66179;44.686;37.628;2023-04-19T13:42:24;21.69;59.54
76857;DHT22;66179;44.686;37.628;2023-04-19T13:44:51;21.61;60.90
76857;DHT22;66179;44.686;37.628;2023-04-19T13:47:18;21.24;59.57
76857;DHT22;66179;44.686;37.628;2023-04-19T13:49:45;21.24;59.99
76857;DHT22;66179;44.686;37.628;2023-04-19T13:52:18;20.92;59.90
76857;DHT22;66179;44.686;37.628;2023-04-19T13:54:44;20.83;61.78
76857;DHT22;66179;44.686;37.628;2023-04-19T13:57:11;20.62;61.61
76857;DHT22;66179;44.686;37.628;2023-04-19T13:59:38;20.35;63.24
76857;DHT22;66179;44.686;37.628;2023-04-19T14:02:05;20.11;63.99
76857;DHT22;66179;44.686;37.628;2023-04-19T14:04:32;19.79;64.58
76857;DHT22;66179;44.686;37.628;2023-04-19T14:06:59;19.42;66.07
76857;DHT22;66179;44.686;37.628;2023-04-19T14:09:26;19.14;67.23
76857;DHT22;66179;44.686;37.628;2023-04-19T14:11:53;18.57;69.57
76857;DHT22;66179;44.686;37.628;2023-04-19T14:14:19;18.07;72.24
76857;DHT22;66179;44.686;37.628;2023-04-19T14:16:47;17.81;73.03
76857;DHT22;66179;44.686;37.628;2023-04-19T14:19:14;17.79;74.43
76857;DHT22;66179;44.686;37.628;2023-04-19T14:21:40;17.91;73.42
76857;DHT22;66179;44.686;37.628;2023-04-19T14:24:07;18.03;73.83
76857;DHT22;66179;44.686;37.628;2023-04-19T14:26:34;18.10;71.69
76857;DHT22;66179;44.686;37.628;2023-04-19T14:29:01;18.37;69.36
76857;DHT22;66179;44.686;37.628;2023-04-19T14:31:28;18.47;69.60
76857;DHT22;66179;44.686;37.628;2023-04-19T14:33:55;18.57;69.77
76857;DHT22;66179;44.686;37.628;2023-04-19T14:36:22;18.71;70.03
76857;DHT22;66179;44.686;37.628;2023-04-19T14:38:50;18.86;69.11
76857;DHT22;66179;44.686;37.628;2023-04-19T14:41:17;18.82;68.66
76857;DHT22;66179;44.686;37.628;2023-04-19T14:43:44;18.76;68.91
76857;DHT22;66179;44.686;37.628;2023-04-19T14:46:11;18.69;69.79
76857;DHT22;66179;44.686;37.628;2023-04-19T14:48:38;18.72;69.55
76857;DHT22;66179;44.686;37.628;2023-04-19T14:51:05;18.80;70.29
76857;DHT22;66179;44.686;37.628;2023-04-19T14:53:31;18.79;70.60
76857;DHT22;66179;44.686;37.628;2023-04-19T14:56:01;18.88;71.06
76857;DHT22;66179;44.686;37.628;2023-04-19T14:58:28;18.88;69.31
76857;DHT22;66179;44.686;37.628;2023-04-19T15:00:55;18.94;68.61
76857;DHT22;66179;44.686;37.628;2023-04-19T15:03:22;18.87;71.03
76857;DHT22;66179;44.686;37.628;2023-04-19T15:05:49;18.76;72.27
76857;DHT22;66179;44.686;37.628;2023-04-19T15:08:15;18.87;70.60
76857;DHT22;66179;44.686;37.628;2023-04-19T15:10:42;18.97;71.61
76857;DHT22;66179;44.686;37.628;2023-04-19T15:13:09;19.01;70.34
76857;DHT22;66179;44.686;37.628;2023-04-19T15:15:36;19.02;70.61
76857;DHT22;66179;44.686;37.628;2023-04-19T15:18:02;18.97;70.90
76857;DHT22;66179;44.686;37.628;2023-04-19T15:20:29;18.85;71.01
76857;DHT22;66179;44.686;37.628;2023-04-19T15:22:56;18.78;71.49
76857;DHT22;66179;44.686;37.628;2023-04-19T15:25:23;18.63;70.45
76857;DHT22;66179;44.686;37.628;2023-04-19T15:27:51;18.47;72.30
76857;DHT22;66179;44.686;37.628;2023-04-19T15:30:18;18.38;72.11
76857;DHT22;66179;44.686;37.628;2023-04-19T15:32:45;18.24;73.13
76857;DHT22;66179;44.686;37.628;2023-04-19T15:35:12;18.12;74.97
76857;DHT22;66179;44.686;37.628;2023-04-19T15:37:39;18.12;73.90
76857;DHT22;66179;44.686;37.628;2023-04-19T15:40:07;18.05;73.63